createdAt,value
2017-09-04T00:00:18.533Z,10.97
2017-09-04T00:02:46.912Z,6.83
2017-09-04T00:05:15.308Z,6.23
2017-09-04T00:07:43.792Z,10.00
2017-09-04T00:21:36.252Z,8.53
2017-09-04T00:24:04.627Z,6.73
2017-09-04T00:26:33.021Z,7.87
2017-09-04T00:29:01.414Z,6.87
2017-09-04T00:31:29.791Z,6.47
2017-09-04T00:33:58.165Z,9.00
2017-09-04T00:36:26.559Z,6.23
2017-09-04T00:38:54.933Z,9.77
2017-09-04T00:41:23.314Z,9.40
2017-09-04T00:43:51.729Z,8.40
2017-09-04T00:46:20.105Z,8.27
2017-09-04T00:48:48.485Z,8.90
2017-09-04T00:51:16.887Z,6.43
2017-09-04T00:53:45.266Z,6.77
2017-09-04T00:56:13.646Z,7.80
2017-09-04T00:58:42.065Z,7.93
2017-09-04T01:01:10.446Z,8.57
2017-09-04T01:03:38.816Z,8.17
2017-09-04T01:06:06.866Z,10.23
2017-09-04T01:08:35.254Z,8.07
2017-09-04T01:11:03.624Z,7.30
2017-09-04T01:13:32.027Z,9.20
2017-09-04T01:16:00.428Z,9.03
2017-09-04T01:18:28.797Z,9.10
2017-09-04T01:20:57.191Z,12.03
2017-09-04T01:23:25.563Z,8.00
2017-09-04T01:25:53.967Z,9.00
2017-09-04T01:28:22.358Z,7.60
2017-09-04T01:30:50.781Z,9.20
2017-09-04T01:33:18.980Z,11.50
2017-09-04T01:35:47.377Z,8.63
2017-09-04T01:38:15.790Z,8.20
2017-09-04T01:40:44.169Z,10.37
2017-09-04T01:43:12.563Z,8.30
2017-09-04T01:45:43.962Z,6.93
2017-09-04T01:48:12.361Z,9.83
2017-09-04T01:50:40.781Z,6.83
2017-09-04T01:53:09.164Z,11.13
2017-09-04T01:55:37.563Z,8.90
2017-09-04T01:58:05.936Z,8.93
2017-09-04T02:00:34.313Z,7.60
2017-09-04T02:03:02.719Z,10.20
2017-09-04T02:05:31.093Z,9.87
2017-09-04T02:07:59.477Z,9.80
2017-09-04T02:10:27.689Z,8.47
2017-09-04T02:12:56.061Z,8.67
2017-09-04T02:15:24.444Z,9.87
2017-09-04T02:17:52.834Z,9.00
2017-09-04T02:20:21.210Z,9.20
2017-09-04T02:22:49.591Z,7.77
2017-09-04T02:25:18.769Z,9.77
2017-09-04T02:27:47.146Z,9.20
2017-09-04T02:30:15.542Z,10.53
2017-09-04T02:32:43.953Z,7.90
2017-09-04T02:35:12.332Z,10.20
2017-09-04T02:37:40.699Z,8.90
2017-09-04T02:40:09.100Z,14.73
2017-09-04T02:42:37.482Z,9.43
2017-09-04T02:45:05.875Z,11.03
2017-09-04T02:47:34.278Z,10.07
2017-09-04T02:50:02.672Z,10.17
2017-09-04T02:52:31.060Z,10.37
2017-09-04T02:54:59.476Z,10.33
2017-09-04T02:57:27.948Z,11.30
2017-09-04T02:59:56.332Z,8.10
2017-09-04T03:02:24.802Z,9.70
2017-09-04T03:04:53.181Z,9.57
2017-09-04T03:07:21.662Z,9.23
2017-09-04T03:09:50.058Z,7.60
2017-09-04T03:12:18.085Z,8.60
2017-09-04T03:14:46.122Z,8.30
2017-09-04T03:17:14.663Z,10.13
2017-09-04T03:19:43.049Z,9.90
2017-09-04T03:22:11.433Z,10.10
2017-09-04T03:24:39.135Z,10.10
2017-09-04T03:27:07.177Z,11.67
2017-09-04T03:29:35.202Z,10.13
2017-09-04T03:32:03.249Z,9.17
2017-09-04T03:34:31.291Z,9.33
2017-09-04T03:36:59.327Z,11.30
2017-09-04T03:39:27.217Z,9.30
2017-09-04T03:41:55.405Z,9.17
2017-09-04T03:44:22.901Z,10.80
2017-09-04T03:46:50.423Z,13.40
2017-09-04T03:49:17.917Z,9.53
2017-09-04T03:51:45.764Z,9.20
2017-09-04T03:54:13.284Z,10.63
2017-09-04T03:56:40.782Z,11.10
2017-09-04T03:59:09.233Z,11.20
2017-09-04T04:01:37.638Z,10.00
2017-09-04T04:04:05.825Z,12.60
2017-09-04T04:06:33.858Z,11.13
2017-09-04T04:09:01.578Z,10.07
2017-09-04T04:11:29.606Z,8.30
2017-09-04T04:13:57.636Z,9.60
2017-09-04T04:16:26.033Z,9.70
2017-09-04T04:18:54.443Z,10.53
2017-09-04T04:21:22.837Z,9.17
2017-09-04T04:23:51.253Z,11.47
2017-09-04T04:26:19.625Z,10.77
2017-09-04T04:28:47.997Z,9.40
2017-09-04T04:31:15.703Z,11.90
2017-09-04T04:33:44.081Z,9.03
2017-09-04T04:36:12.962Z,10.27
2017-09-04T04:38:41.365Z,8.87
2017-09-04T04:41:09.746Z,10.47
2017-09-04T04:43:38.146Z,11.53
2017-09-04T04:46:06.558Z,9.33
2017-09-04T04:48:34.937Z,10.77
2017-09-04T04:51:03.315Z,10.70
2017-09-04T04:53:31.727Z,9.60
2017-09-04T04:56:00.106Z,10.70
2017-09-04T04:58:28.486Z,10.13
2017-09-04T05:00:56.896Z,9.53
2017-09-04T05:03:25.272Z,10.90
2017-09-04T05:05:53.670Z,11.47
2017-09-04T05:08:22.077Z,11.50
2017-09-04T05:10:50.469Z,10.13
2017-09-04T05:13:18.847Z,9.90
2017-09-04T05:15:47.249Z,11.60
2017-09-04T05:18:15.639Z,8.60
2017-09-04T05:20:44.015Z,8.20
2017-09-04T05:23:12.414Z,8.67
2017-09-04T05:25:40.782Z,9.57
2017-09-04T05:28:09.165Z,10.10
2017-09-04T05:30:37.573Z,9.80
2017-09-04T05:33:05.954Z,12.17
2017-09-04T05:35:34.342Z,8.90
2017-09-04T05:38:02.753Z,10.40
2017-09-04T05:40:31.134Z,9.50
2017-09-04T05:42:59.514Z,8.80
2017-09-04T05:45:28.665Z,9.10
2017-09-04T05:47:57.041Z,8.97
2017-09-04T05:50:26.498Z,9.47
2017-09-04T05:52:57.936Z,10.97
2017-09-04T05:55:26.311Z,8.67
2017-09-04T05:57:55.477Z,8.17
2017-09-04T06:00:23.850Z,10.37
2017-09-04T06:02:52.242Z,9.60
2017-09-04T06:05:20.485Z,10.23
2017-09-04T06:07:48.862Z,8.93
2017-09-04T06:10:17.328Z,10.23
2017-09-04T06:12:45.805Z,8.90
2017-09-04T06:15:14.179Z,9.30
2017-09-04T06:17:42.547Z,10.83
2017-09-04T06:20:10.942Z,7.20
2017-09-04T06:22:39.317Z,10.37
2017-09-04T06:25:07.701Z,8.70
2017-09-04T06:27:36.090Z,10.47
2017-09-04T06:30:04.477Z,9.43
2017-09-04T06:32:32.842Z,8.73
2017-09-04T06:35:01.250Z,7.93
2017-09-04T06:37:29.625Z,8.53
2017-09-04T06:39:58.005Z,12.10
2017-09-04T06:42:26.395Z,8.90
2017-09-04T06:44:54.766Z,8.87
2017-09-04T06:47:23.137Z,8.57
2017-09-04T06:49:51.547Z,10.10
2017-09-04T06:52:20.690Z,9.67
2017-09-04T06:54:49.071Z,10.03
2017-09-04T06:57:17.469Z,10.23
2017-09-04T06:59:45.862Z,8.17
2017-09-04T07:02:14.238Z,9.90
2017-09-04T07:04:42.632Z,9.17
2017-09-04T07:07:11.010Z,11.07
2017-09-04T07:09:39.377Z,9.30
2017-09-04T07:12:07.767Z,9.03
2017-09-04T07:14:36.143Z,11.30
2017-09-04T07:17:04.515Z,8.50
2017-09-04T07:19:33.717Z,9.23
2017-09-04T07:22:02.111Z,9.03
2017-09-04T07:24:30.786Z,8.43
2017-09-04T07:26:59.202Z,8.07
2017-09-04T07:29:27.577Z,7.07
2017-09-04T07:31:55.954Z,9.07
2017-09-04T07:34:24.366Z,9.27
2017-09-04T07:36:52.747Z,7.53
2017-09-04T07:39:21.129Z,6.47
2017-09-04T07:41:49.528Z,5.77
2017-09-04T07:44:18.683Z,7.70
2017-09-04T07:46:47.061Z,7.87
2017-09-04T07:49:15.457Z,5.20
2017-09-04T07:51:43.830Z,7.93
2017-09-04T07:54:12.200Z,9.20
2017-09-04T07:56:40.593Z,7.63
2017-09-04T07:59:08.974Z,7.03
2017-09-04T08:01:37.354Z,7.53
2017-09-04T08:04:05.746Z,5.60
2017-09-04T08:06:34.118Z,6.13
2017-09-04T08:09:02.509Z,8.40
2017-09-04T08:11:30.902Z,6.33
2017-09-04T08:13:59.281Z,6.30
2017-09-04T08:16:27.685Z,7.30
2017-09-04T08:18:56.094Z,6.60
2017-09-04T08:21:24.470Z,6.47
2017-09-04T08:23:52.845Z,8.77
2017-09-04T08:26:21.253Z,7.07
2017-09-04T08:28:49.634Z,7.90
2017-09-04T08:31:18.014Z,7.50
2017-09-04T08:33:46.418Z,9.40
2017-09-04T08:36:14.795Z,8.40
2017-09-04T08:38:43.174Z,7.63
2017-09-04T08:41:12.130Z,7.10
2017-09-04T08:43:40.507Z,11.00
2017-09-04T08:46:08.882Z,8.33
2017-09-04T08:48:37.282Z,7.97
2017-09-04T08:51:05.658Z,6.93
2017-09-04T08:53:34.034Z,8.70
2017-09-04T08:56:03.211Z,7.00
2017-09-04T08:58:31.595Z,6.90
2017-09-04T09:00:59.276Z,6.43
2017-09-04T09:03:27.671Z,6.70
2017-09-04T09:05:56.049Z,7.70
2017-09-04T09:08:24.428Z,6.03
2017-09-04T09:10:52.829Z,7.90
2017-09-04T09:13:21.211Z,5.67
2017-09-04T09:15:49.842Z,7.20
2017-09-04T09:18:18.261Z,6.30
2017-09-04T09:20:46.661Z,6.53
2017-09-04T09:23:14.845Z,7.87
2017-09-04T09:25:43.050Z,6.50
2017-09-04T09:28:11.230Z,7.23
2017-09-04T09:30:39.609Z,6.43
2017-09-04T09:33:08.017Z,6.57
2017-09-04T09:35:36.391Z,4.37
2017-09-04T09:38:04.763Z,4.87
2017-09-04T09:40:33.161Z,9.30
2017-09-04T09:43:01.541Z,7.00
2017-09-04T09:45:29.917Z,5.07
2017-09-04T09:47:58.310Z,5.57
2017-09-04T09:50:26.698Z,10.23
2017-09-04T09:52:54.881Z,6.83
2017-09-04T09:55:23.095Z,5.90
2017-09-04T09:57:51.277Z,5.40
2017-09-04T10:00:19.462Z,5.83
2017-09-04T10:02:47.678Z,5.47
2017-09-04T10:05:15.862Z,7.17
2017-09-04T10:07:44.045Z,7.50
2017-09-04T10:10:12.242Z,8.20
2017-09-04T10:12:40.440Z,8.90
2017-09-04T10:15:08.634Z,7.10
2017-09-04T10:17:36.822Z,5.87
2017-09-04T10:20:05.791Z,6.53
2017-09-04T10:22:34.010Z,6.60
2017-09-04T10:25:02.210Z,5.33
2017-09-04T10:27:30.391Z,4.67
2017-09-04T10:29:58.588Z,4.50
2017-09-04T10:32:26.772Z,4.07
2017-09-04T10:34:54.984Z,5.03
2017-09-04T10:37:23.173Z,5.10
2017-09-04T10:39:51.362Z,4.00
2017-09-04T10:42:19.550Z,4.03
2017-09-04T10:44:47.779Z,5.93
2017-09-04T10:47:15.981Z,4.27
2017-09-04T10:49:44.171Z,4.50
2017-09-04T10:52:12.369Z,5.67
2017-09-04T10:54:40.554Z,4.47
2017-09-04T10:57:08.772Z,5.13
2017-09-04T10:59:37.195Z,5.00
2017-09-04T11:02:05.400Z,4.87
2017-09-04T11:04:33.683Z,6.40
2017-09-04T11:07:02.092Z,7.33
2017-09-04T11:09:30.462Z,4.90
2017-09-04T11:11:58.339Z,4.20
2017-09-04T11:14:26.533Z,4.33
2017-09-04T11:16:54.725Z,7.67
2017-09-04T11:19:22.923Z,5.87
2017-09-04T11:21:51.125Z,5.20
2017-09-04T11:24:19.377Z,4.50
2017-09-04T11:26:47.574Z,4.77
2017-09-04T11:29:15.765Z,5.63
2017-09-04T11:31:43.966Z,5.47
2017-09-04T11:34:12.157Z,6.63
2017-09-04T11:36:40.357Z,6.00
2017-09-04T11:39:08.742Z,6.47
2017-09-04T11:41:37.144Z,5.00
2017-09-04T11:44:05.524Z,3.80
2017-09-04T11:46:33.910Z,6.17
2017-09-04T11:49:02.305Z,4.47
2017-09-04T11:51:30.609Z,4.60
2017-09-04T11:53:58.978Z,3.93
2017-09-04T11:56:27.363Z,5.77
2017-09-04T11:58:55.550Z,5.73
2017-09-04T12:01:23.761Z,6.00
2017-09-04T12:03:52.144Z,5.20
2017-09-04T12:06:20.518Z,5.80
2017-09-04T12:08:48.910Z,5.63
2017-09-04T12:11:17.870Z,5.57
2017-09-04T12:13:46.271Z,4.70
2017-09-04T12:16:14.698Z,6.50
2017-09-04T12:18:43.078Z,5.60
2017-09-04T12:21:11.298Z,6.17
2017-09-04T12:23:39.517Z,5.53
2017-09-04T12:26:07.702Z,4.90
2017-09-04T12:28:35.903Z,4.97
2017-09-04T12:31:04.089Z,5.43
2017-09-04T12:33:32.486Z,9.77
2017-09-04T12:36:01.641Z,4.93
2017-09-04T12:38:30.033Z,7.47
2017-09-04T12:40:58.435Z,6.53
2017-09-04T12:43:26.813Z,6.47
2017-09-04T12:45:55.224Z,4.80
2017-09-04T12:48:23.418Z,4.97
2017-09-04T12:50:51.793Z,4.40
2017-09-04T12:53:20.022Z,4.93
2017-09-04T12:55:48.674Z,4.80
2017-09-04T12:58:17.065Z,5.40
2017-09-04T13:00:45.438Z,4.77
2017-09-04T13:03:13.631Z,4.10
2017-09-04T13:05:42.018Z,4.23
2017-09-04T13:08:10.215Z,8.00
2017-09-04T13:10:46.405Z,3.23
2017-09-04T13:13:20.288Z,4.87
2017-09-04T13:15:54.330Z,2.97
2017-09-04T13:18:28.342Z,6.13
2017-09-04T13:21:02.281Z,5.33
2017-09-04T13:23:36.194Z,4.40
2017-09-04T13:26:22.212Z,3.93
2017-09-04T13:32:11.667Z,7.25
2017-09-04T13:48:12.925Z,4.17
2017-09-04T14:04:33.746Z,6.20
2017-09-04T14:07:18.752Z,3.90
2017-09-04T14:09:59.698Z,4.90
2017-09-04T14:12:33.432Z,4.63
2017-09-04T14:15:14.402Z,4.70
2017-09-04T14:17:54.800Z,3.57
2017-09-04T14:20:23.190Z,5.10
2017-09-04T14:22:51.378Z,4.00
2017-09-04T14:25:19.655Z,6.83
2017-09-04T14:27:47.854Z,4.23
2017-09-04T14:30:16.104Z,5.43
2017-09-04T14:32:44.302Z,3.97
2017-09-04T14:35:12.689Z,4.07
2017-09-04T14:37:40.895Z,4.30
2017-09-04T14:40:09.846Z,7.13
2017-09-04T14:42:40.881Z,8.13
2017-09-04T14:45:14.046Z,4.00
2017-09-04T14:47:45.721Z,2.53
2017-09-04T14:50:13.922Z,5.33
2017-09-04T14:52:42.108Z,4.80
2017-09-04T14:55:13.982Z,4.37
2017-09-04T14:57:42.194Z,3.20
2017-09-04T15:00:10.413Z,4.97
2017-09-04T15:02:38.598Z,4.93
2017-09-04T15:05:06.787Z,4.70
2017-09-04T15:07:34.994Z,5.43
2017-09-04T15:10:03.186Z,5.63
2017-09-04T15:12:31.394Z,6.57
2017-09-04T15:14:59.578Z,5.03
2017-09-04T15:17:27.770Z,5.67
2017-09-04T15:19:55.977Z,6.53
2017-09-04T15:22:24.162Z,6.20
2017-09-04T15:24:52.381Z,10.40
2017-09-04T15:27:20.676Z,3.07
2017-09-04T15:29:49.494Z,4.00
2017-09-04T15:32:18.606Z,6.23
2017-09-04T15:34:46.788Z,6.63
2017-09-04T15:37:14.980Z,4.87
2017-09-04T15:39:43.190Z,4.90
2017-09-04T15:42:12.002Z,5.00
2017-09-04T15:44:40.186Z,5.30
2017-09-04T15:47:08.418Z,3.90
2017-09-04T15:49:36.610Z,6.07
2017-09-04T15:52:04.802Z,4.63
2017-09-04T15:54:33.066Z,5.43
2017-09-04T15:57:01.250Z,3.47
2017-09-04T15:59:29.438Z,4.47
2017-09-04T16:01:57.653Z,7.80
2017-09-04T16:04:25.842Z,4.17
2017-09-04T16:06:58.542Z,3.07
2017-09-04T16:09:26.733Z,4.17
2017-09-04T16:11:56.010Z,2.83
2017-09-04T16:14:24.683Z,4.60
2017-09-04T16:16:56.069Z,3.47
2017-09-04T16:19:34.242Z,5.00
2017-09-04T16:22:06.189Z,3.33
2017-09-04T16:24:34.402Z,4.03
2017-09-04T16:27:06.262Z,4.77
2017-09-04T16:29:36.271Z,3.17
2017-09-04T16:32:06.468Z,3.80
2017-09-04T16:34:49.598Z,3.07
2017-09-04T16:37:20.578Z,3.43
2017-09-04T16:39:48.777Z,4.30
2017-09-04T16:42:22.643Z,2.93
2017-09-04T16:44:51.684Z,3.60
2017-09-04T16:47:21.564Z,3.13
2017-09-04T16:49:49.800Z,3.87
2017-09-04T17:05:41.115Z,2.60
2017-09-04T17:08:09.310Z,2.77
2017-09-04T17:10:39.508Z,2.37
2017-09-04T17:13:07.734Z,2.63
2017-09-04T17:15:37.985Z,2.87
2017-09-04T17:18:06.181Z,2.37
2017-09-04T17:20:49.277Z,3.30
2017-09-04T17:23:18.117Z,2.20
2017-09-04T17:25:46.352Z,2.30
2017-09-04T17:28:15.955Z,2.77
2017-09-04T17:30:44.261Z,2.00
2017-09-04T17:33:13.465Z,2.70
2017-09-04T17:35:42.914Z,2.87
2017-09-04T17:38:11.230Z,2.73
2017-09-04T17:40:39.418Z,3.10
2017-09-04T17:43:07.678Z,2.67
2017-09-04T17:45:35.916Z,3.50
2017-09-04T17:48:04.133Z,5.10
2017-09-04T17:50:32.403Z,4.73
2017-09-04T17:53:00.609Z,2.50
2017-09-04T17:55:29.177Z,2.40
2017-09-04T17:57:57.429Z,2.00
2017-09-04T18:00:25.685Z,4.30
2017-09-04T18:02:54.066Z,2.70
2017-09-04T18:05:22.466Z,2.00
2017-09-04T18:07:50.961Z,1.73
2017-09-04T18:10:19.857Z,2.43
2017-09-04T18:12:50.253Z,2.53
2017-09-04T18:15:18.710Z,2.90
2017-09-04T18:17:46.906Z,3.00
2017-09-04T18:20:15.137Z,2.70
2017-09-04T18:22:43.334Z,2.60
2017-09-04T18:25:13.759Z,3.03
2017-09-04T18:27:42.154Z,3.47
2017-09-04T18:30:10.376Z,2.57
2017-09-04T18:32:39.529Z,3.07
2017-09-04T18:35:07.758Z,2.90
2017-09-04T18:37:36.148Z,2.90
2017-09-04T18:40:04.400Z,4.90
2017-09-04T18:42:32.630Z,4.00
2017-09-04T18:45:00.814Z,2.60
2017-09-04T18:47:29.018Z,2.40
2017-09-04T18:49:57.241Z,2.73
2017-09-04T18:52:26.207Z,3.37
2017-09-04T18:54:55.187Z,3.53
2017-09-04T18:57:23.417Z,2.60
2017-09-04T18:59:51.722Z,2.73
2017-09-04T19:02:20.142Z,2.83
2017-09-04T19:04:48.695Z,2.67
2017-09-04T19:07:17.855Z,3.17
2017-09-04T19:09:46.234Z,2.57
2017-09-04T19:12:14.680Z,2.10
2017-09-04T19:14:42.898Z,2.77
2017-09-04T19:17:11.087Z,3.13
2017-09-04T19:19:39.309Z,2.83
2017-09-04T19:22:07.702Z,2.60
2017-09-04T19:24:35.906Z,5.40
2017-09-04T19:27:04.126Z,3.70
2017-09-04T19:29:32.342Z,3.20
2017-09-04T19:32:00.619Z,3.20
2017-09-04T19:34:28.829Z,2.33
2017-09-04T19:36:57.023Z,4.20
2017-09-04T19:39:25.228Z,3.03
2017-09-04T19:41:53.479Z,3.43
2017-09-04T19:44:21.855Z,3.90
2017-09-04T19:46:50.235Z,7.80
2017-09-04T19:49:18.642Z,4.40
2017-09-04T19:51:46.844Z,4.63
2017-09-04T19:54:15.822Z,3.37
2017-09-04T19:56:44.152Z,3.80
2017-09-04T19:59:12.338Z,3.57
2017-09-04T20:01:40.526Z,3.40
2017-09-04T20:04:08.741Z,3.93
2017-09-04T20:06:36.959Z,4.30
2017-09-04T20:09:04.682Z,3.90
2017-09-04T20:11:33.290Z,3.20
2017-09-04T20:14:01.506Z,3.77
2017-09-04T20:16:29.888Z,3.63
2017-09-04T20:18:58.088Z,4.23
2017-09-04T20:21:26.284Z,4.63
2017-09-04T20:23:54.570Z,3.27
2017-09-04T20:26:22.966Z,4.87
2017-09-04T20:28:51.374Z,3.80
2017-09-04T20:31:19.781Z,4.20
2017-09-04T20:33:48.166Z,4.47
2017-09-04T20:36:16.659Z,4.87
2017-09-04T20:38:44.851Z,3.53
2017-09-04T20:41:14.594Z,4.03
2017-09-04T20:43:44.448Z,3.33
2017-09-04T20:46:12.912Z,4.33
2017-09-04T20:48:41.300Z,4.47
2017-09-04T20:51:09.690Z,4.53
2017-09-04T20:53:38.336Z,4.60
2017-09-04T20:56:06.711Z,3.83
2017-09-04T20:58:34.902Z,4.47
2017-09-04T21:01:04.058Z,4.40
2017-09-04T21:03:32.441Z,3.67
2017-09-04T21:06:01.868Z,4.27
2017-09-04T21:08:31.471Z,5.83
2017-09-04T21:10:59.761Z,4.70
2017-09-04T21:13:27.986Z,4.10
2017-09-04T21:15:56.186Z,5.30
2017-09-04T21:18:24.451Z,7.37
2017-09-04T21:20:52.646Z,4.53
2017-09-04T21:23:20.844Z,4.10
2017-09-04T21:25:51.299Z,6.60
2017-09-04T21:28:19.610Z,4.13
2017-09-04T21:30:48.070Z,3.50
2017-09-04T21:33:16.255Z,4.57
2017-09-04T21:35:44.478Z,3.90
2017-09-04T21:38:12.768Z,4.97
2017-09-04T21:40:41.463Z,4.83
2017-09-04T21:43:10.236Z,4.50
2017-09-04T21:45:38.458Z,5.00
2017-09-04T21:48:06.890Z,6.40
2017-09-04T21:50:35.305Z,6.93
2017-09-04T21:53:03.690Z,6.00
2017-09-04T21:55:32.296Z,5.23
2017-09-04T21:58:00.750Z,4.67
2017-09-04T22:00:29.154Z,4.20
2017-09-04T22:02:57.541Z,4.87
2017-09-04T22:05:27.033Z,3.90
2017-09-04T22:07:55.637Z,4.47
2017-09-04T22:10:23.930Z,4.77
2017-09-04T22:12:52.322Z,4.87
2017-09-04T22:15:20.710Z,5.60
2017-09-04T22:17:48.902Z,4.80
2017-09-04T22:20:17.360Z,4.63
2017-09-04T22:22:45.738Z,5.53
2017-09-04T22:25:14.120Z,4.57
2017-09-04T22:27:42.319Z,6.87
2017-09-04T22:30:10.510Z,5.20
2017-09-04T22:32:38.858Z,4.77
2017-09-04T22:35:07.076Z,5.33
2017-09-04T22:37:35.289Z,5.63
2017-09-04T22:40:03.685Z,4.70
2017-09-04T22:42:32.066Z,5.17
2017-09-04T22:45:00.433Z,5.30
2017-09-04T22:47:28.721Z,5.97
2017-09-04T22:49:57.502Z,5.37
2017-09-04T22:52:25.708Z,4.80
2017-09-04T22:54:53.909Z,6.43
2017-09-04T22:57:22.154Z,5.57
2017-09-04T22:59:51.601Z,5.53
2017-09-04T23:02:21.123Z,4.47
2017-09-04T23:04:49.401Z,5.63
2017-09-04T23:07:17.594Z,5.13
2017-09-04T23:09:45.887Z,5.20
2017-09-04T23:12:14.074Z,4.30
2017-09-04T23:14:42.265Z,5.07
2017-09-04T23:17:10.470Z,4.73
2017-09-04T23:19:38.845Z,5.10
2017-09-04T23:22:07.474Z,5.00
2017-09-04T23:24:35.845Z,3.80
2017-09-04T23:27:04.801Z,5.20
2017-09-04T23:29:33.193Z,5.20
2017-09-04T23:32:01.570Z,5.33
2017-09-04T23:34:30.098Z,4.73
2017-09-04T23:36:58.309Z,4.37
2017-09-04T23:39:26.682Z,5.10
2017-09-04T23:41:55.067Z,5.33
2017-09-04T23:44:23.255Z,6.40
2017-09-04T23:46:51.877Z,4.70
2017-09-04T23:49:20.071Z,5.33
2017-09-04T23:51:48.442Z,6.10
2017-09-04T23:54:16.838Z,6.50
2017-09-04T23:56:45.031Z,5.17
2017-09-04T23:59:13.438Z,6.90
